Time;durP1;ratioP1;P1;durP2;ratioP2;P2;SDS_P1;SDS_P2;PMS_P1;PMS_P2;Temp;Humidity;BMP_temperature;BMP_pressure;BME280_temperature;BME280_humidity;BME280_pressure;Samples;Min_cycle;Max_cycle;Signal;HPM_P1;HPM_P2
2023/06/05 04:36:20;;;;;;;7.57;5.50;;;12.40;99.90;;;;;;5097658;28;20537;-83
2023/06/05 04:44:25;;;;;;;8.97;6.07;;;;;;;;;;5139146;27;20276;-85
2023/06/05 04:52:34;;;;;;;8.87;6.00;;;;;;;;;;5139020;27;20278;-83
2023/06/05 05:00:18;;;;;;;8.83;6.03;;;;;;;;;;5139709;27;20263;-83
2023/06/05 05:05:38;;;;;;;8.67;5.80;;;;;;;;;;5139177;27;20776;-84
2023/06/05 05:10:34;;;;;;;8.50;6.10;;;13.50;99.90;;;;;;5136458;27;20271;-85
2023/06/05 05:15:14;;;;;;;12.50;5.93;;;;;;;;;;5136999;27;20275;-84
2023/06/05 05:21:42;;;;;;;8.63;6.43;;;13.30;99.90;;;;;;5128220;27;20270;-83
2023/06/05 05:27:29;;;;;;;9.60;6.47;;;13.30;99.90;;;;;;5116949;27;20770;-85
2023/06/05 05:32:59;;;;;;;9.73;6.47;;;13.20;99.90;;;;;;5139195;27;20724;-83
2023/06/05 05:37:53;;;;;;;7.73;6.03;;;13.20;99.90;;;;;;5138549;27;20283;-84
2023/06/05 05:43:47;;;;;;;11.57;6.80;;;13.30;99.90;;;;;;5137918;27;20279;-84
2023/06/05 05:47:21;;;;;;;7.23;5.87;;;13.40;99.90;;;;;;5140040;27;20289;-84
2023/06/05 05:51:21;;;;;;;8.83;5.87;;;13.50;99.90;;;;;;5146486;27;20670;-84
2023/06/05 05:55:21;;;;;;;9.10;6.70;;;13.60;99.90;;;;;;5142769;27;20289;-83
2023/06/05 05:59:18;;;;;;;15.10;7.13;;;15.00;99.90;;;;;;5138918;27;20265;-85
2023/06/05 06:03:17;;;;;;;18.67;7.43;;;14.00;99.90;;;;;;5138897;27;20269;-85
2023/06/05 06:07:15;;;;;;;8.47;6.97;;;14.10;99.90;;;;;;5139437;27;20294;-84
2023/06/05 06:11:18;;;;;;;11.17;6.73;;;14.30;99.90;;;;;;5140762;27;20267;-84
2023/06/05 06:15:15;;;;;;;17.10;7.00;;;14.40;99.90;;;;;;5142156;27;20277;-86
2023/06/05 06:19:25;;;;;;;8.43;7.07;;;;;;;;;;5138704;27;20275;-85
2023/06/05 06:23:17;;;;;;;7.60;6.30;;;14.70;99.90;;;;;;5138638;27;20272;-84
2023/06/05 06:27:13;;;;;;;10.70;7.50;;;14.80;99.90;;;;;;5142882;27;20302;-85
2023/06/05 06:31:11;;;;;;;13.40;7.63;;;14.90;99.90;;;;;;5120707;27;20372;-85
2023/06/05 06:35:06;;;;;;;10.83;7.10;;;15.00;99.90;;;;;;5133288;27;20287;-85
2023/06/05 06:37:32;;;;;;;8.93;7.17;;;15.30;99.90;;;;;;5100453;28;20222;-86
2023/06/05 06:39:58;;;;;;;11.13;7.57;;;15.40;99.90;;;;;;5100231;28;20609;-85
2023/06/05 06:42:26;;;;;;;8.43;6.87;;;;;;;;;;5102312;28;20198;-85
2023/06/05 06:44:55;;;;;;;10.03;7.10;;;;;;;;;;5099026;28;20180;-85
2023/06/05 06:47:22;;;;;;;13.17;6.93;;;15.80;99.90;;;;;;5096885;28;20202;-85
2023/06/05 06:49:47;;;;;;;10.20;7.57;;;15.80;99.90;;;;;;5098578;28;20175;-85
2023/06/05 06:52:13;;;;;;;9.87;7.90;;;16.20;99.90;;;;;;5096798;28;20555;-85
2023/06/05 06:54:39;;;;;;;10.60;7.57;;;;;;;;;;5097883;28;20233;-85
2023/06/05 06:57:05;;;;;;;8.23;7.43;;;16.70;99.90;;;;;;5096646;28;20292;-85
2023/06/05 06:59:31;;;;;;;8.53;7.00;;;16.90;99.90;;;;;;5096067;28;20209;-85
2023/06/05 07:02:11;;;;;;;10.60;6.87;;;16.80;99.90;;;;;;5097224;28;20209;-85
2023/06/05 07:04:38;;;;;;;8.50;7.03;;;17.00;99.90;;;;;;5097406;28;20201;-85
2023/06/05 07:07:04;;;;;;;8.60;6.87;;;17.00;99.90;;;;;;5096943;28;20204;-85
2023/06/05 07:09:30;;;;;;;9.83;7.20;;;17.10;99.90;;;;;;5098657;28;20223;-85
2023/06/05 07:11:56;;;;;;;7.87;6.90;;;;;;;;;;5097793;28;20670;-85
2023/06/05 07:14:22;;;;;;;12.60;7.90;;;17.20;99.90;;;;;;5096682;28;20207;-86
2023/06/05 07:16:48;;;;;;;8.13;7.30;;;17.30;99.90;;;;;;5096148;28;20206;-85
2023/06/05 07:19:15;;;;;;;8.67;6.67;;;17.30;99.90;;;;;;5096390;28;20178;-85
2023/06/05 07:21:41;;;;;;;11.07;6.37;;;17.40;99.90;;;;;;5096073;28;20208;-86
2023/06/05 07:24:07;;;;;;;9.93;6.93;;;17.50;99.90;;;;;;5096438;28;20273;-86
2023/06/05 07:26:33;;;;;;;8.73;7.20;;;17.70;99.90;;;;;;5095446;28;20207;-85
2023/06/05 07:28:59;;;;;;;8.10;6.47;;;17.70;99.90;;;;;;5095923;28;20649;-84
2023/06/05 07:31:25;;;;;;;8.67;6.30;;;;;;;;;;5095359;28;20209;-84
2023/06/05 07:33:51;;;;;;;10.97;6.83;;;18.00;99.90;;;;;;5095210;28;20224;-84
2023/06/05 07:36:17;;;;;;;8.17;7.00;;;18.20;99.90;;;;;;5095156;28;20253;-84
2023/06/05 07:38:43;;;;;;;7.00;6.30;;;18.30;99.90;;;;;;5095461;28;20229;-85
2023/06/05 07:41:11;;;;;;;8.80;7.13;;;18.50;99.90;;;;;;5095108;28;20174;-84
2023/06/05 07:43:41;;;;;;;9.43;7.37;;;18.70;99.90;;;;;;5095280;28;20694;-84
2023/06/05 07:46:08;;;;;;;8.07;6.90;;;18.70;99.90;;;;;;5082815;28;20200;-84
2023/06/05 07:48:35;;;;;;;8.93;6.87;;;18.70;99.90;;;;;;5086539;28;20192;-84
2023/06/05 07:51:01;;;;;;;6.97;6.27;;;18.70;99.90;;;;;;5085997;28;20184;-85
2023/06/05 07:53:27;;;;;;;11.67;6.77;;;19.00;99.90;;;;;;5082485;28;20744;-84
2023/06/05 07:55:52;;;;;;;9.77;7.13;;;19.20;99.90;;;;;;5084232;28;20209;-86
2023/06/05 07:58:18;;;;;;;7.93;6.20;;;19.40;99.90;;;;;;5084121;28;20207;-85
2023/06/05 08:00:47;;;;;;;8.23;5.93;;;19.60;99.90;;;;;;5083540;28;20208;-85
2023/06/05 08:03:23;;;;;;;10.70;6.67;;;19.80;99.90;;;;;;5083648;28;20178;-85
2023/06/05 08:05:52;;;;;;;7.47;6.73;;;19.80;99.90;;;;;;5084151;28;20191;-85
2023/06/05 08:08:18;;;;;;;7.90;6.73;;;19.90;99.90;;;;;;5083526;28;20211;-86
2023/06/05 08:10:44;;;;;;;8.00;6.40;;;20.00;99.90;;;;;;5083054;28;20228;-86
2023/06/05 08:13:10;;;;;;;8.37;5.87;;;19.90;99.90;;;;;;5082793;28;20205;-86
2023/06/05 08:15:36;;;;;;;8.50;5.80;;;19.80;99.90;;;;;;5084627;28;20173;-85
2023/06/05 08:18:02;;;;;;;10.83;6.20;;;19.70;99.90;;;;;;5083256;28;20736;-85
2023/06/05 08:20:29;;;;;;;7.53;5.87;;;;;;;;;;5084169;28;20691;-85
2023/06/05 08:22:57;;;;;;;6.40;5.80;;;19.90;99.90;;;;;;5083516;28;20554;-86
2023/06/05 08:25:24;;;;;;;6.97;5.70;;;20.20;99.90;;;;;;5084536;28;20179;-86
2023/06/05 08:27:49;;;;;;;8.23;5.70;;;20.50;99.90;;;;;;5084210;28;20394;-87
2023/06/05 08:30:16;;;;;;;5.93;5.33;;;20.80;99.90;;;;;;5083916;28;20606;-86
2023/06/05 08:32:43;;;;;;;9.37;6.47;;;20.90;99.90;;;;;;5079899;28;20209;-87
2023/06/05 08:35:10;;;;;;;6.03;5.37;;;20.90;99.90;;;;;;5078482;28;20180;-85
2023/06/05 08:37:35;;;;;;;6.43;5.37;;;20.70;99.90;;;;;;5080979;28;20200;-85
2023/06/05 08:40:10;;;;;;;6.03;4.73;;;20.70;99.90;;;;;;5080504;28;20173;-86
2023/06/05 08:42:37;;;;;;;5.70;4.93;;;20.90;99.90;;;;;;5080559;28;20177;-86
2023/06/05 08:45:07;;;;;;;8.10;5.30;;;21.20;99.90;;;;;;5078871;28;20671;-82
2023/06/05 08:47:36;;;;;;;5.43;4.80;;;21.20;99.90;;;;;;5078351;28;20674;-86
2023/06/05 08:50:05;;;;;;;10.27;4.60;;;21.10;99.90;;;;;;5079965;28;20188;-86
2023/06/05 08:52:36;;;;;;;5.87;4.97;;;21.10;99.90;;;;;;5077808;28;20646;-82
2023/06/05 08:55:04;;;;;;;7.63;4.93;;;21.10;99.90;;;;;;5078149;28;20197;-87
2023/06/05 08:57:32;;;;;;;6.43;5.13;;;21.10;99.90;;;;;;5076483;28;20195;-87
2023/06/05 09:00:00;;;;;;;7.73;4.53;;;21.20;99.90;;;;;;5077549;28;20176;-87
2023/06/05 09:02:26;;;;;;;5.70;5.10;;;21.10;99.90;;;;;;5075426;28;20208;-86
2023/06/05 09:04:51;;;;;;;6.87;4.53;;;21.30;99.90;;;;;;5080085;28;20178;-86
2023/06/05 09:07:18;;;;;;;5.30;4.80;;;21.50;99.90;;;;;;5078060;28;20196;-86
2023/06/05 09:09:43;;;;;;;5.43;4.30;;;21.80;99.90;;;;;;5076157;28;20272;-85
2023/06/05 09:12:09;;;;;;;6.37;4.27;;;22.00;99.90;;;;;;5075648;28;20211;-86
2023/06/05 09:14:35;;;;;;;5.00;4.40;;;22.20;99.90;;;;;;5074982;28;20678;-86
2023/06/05 09:17:02;;;;;;;7.20;4.63;;;22.00;99.90;;;;;;5075585;28;20205;-85
2023/06/05 09:19:38;;;;;;;5.87;4.33;;;21.90;99.90;;;;;;5076417;28;20220;-86
2023/06/05 09:22:07;;;;;;;6.30;4.77;;;21.80;99.90;;;;;;5076557;28;20169;-86
2023/06/05 09:24:33;;;;;;;6.10;4.97;;;22.00;99.90;;;;;;5075026;28;20206;-86
2023/06/05 09:27:05;;;;;;;4.97;4.30;;;22.30;99.90;;;;;;5087764;28;20208;-87
2023/06/05 09:29:33;;;;;;;4.20;3.80;;;22.50;99.90;;;;;;5075905;28;20179;-87
2023/06/05 09:32:16;;;;;;;6.37;4.20;;;22.90;99.90;;;;;;5079030;28;20196;-87
2023/06/05 09:34:42;;;;;;;4.83;4.33;;;23.10;99.90;;;;;;5078894;28;20212;-86
2023/06/05 09:37:08;;;;;;;6.40;4.90;;;23.40;99.90;;;;;;5078958;28;20185;-87
2023/06/05 09:39:35;;;;;;;6.13;4.17;;;23.40;99.90;;;;;;5077533;28;20186;-87
2023/06/05 09:42:01;;;;;;;6.20;4.20;;;23.50;99.90;;;;;;5075575;28;20653;-87
2023/06/05 09:44:28;;;;;;;5.53;4.20;;;23.50;99.90;;;;;;5074621;28;20181;-88
2023/06/05 09:46:58;;;;;;;4.93;4.10;;;23.80;99.90;;;;;;5074608;28;20257;-88
2023/06/05 09:49:29;;;;;;;4.73;3.93;;;24.00;99.90;;;;;;5075912;28;20231;-88
2023/06/05 09:52:00;;;;;;;4.03;3.57;;;24.20;99.90;;;;;;5074989;28;20644;-89
2023/06/05 09:54:29;;;;;;;6.47;4.27;;;24.00;99.90;;;;;;5075453;28;20206;-88
2023/06/05 09:57:01;;;;;;;4.47;3.87;;;23.90;99.90;;;;;;5075690;28;20237;-88
2023/06/05 09:59:31;;;;;;;8.13;4.90;;;24.00;98.40;;;;;;5082280;28;20557;-86
2023/06/05 10:02:06;;;;;;;8.40;4.70;;;24.40;99.90;;;;;;5079984;28;20556;-87
2023/06/05 10:04:53;;;;;;;5.17;4.23;;;24.60;99.30;;;;;;5076782;28;20644;-89
2023/06/05 10:07:19;;;;;;;4.90;4.40;;;24.60;99.50;;;;;;5076581;28;20204;-87
2023/06/05 10:09:49;;;;;;;5.23;4.33;;;25.00;99.90;;;;;;5075764;28;20212;-87
2023/06/05 10:12:16;;;;;;;5.00;3.67;;;25.20;99.90;;;;;;5076713;28;20184;-87
2023/06/05 10:14:43;;;;;;;5.23;4.27;;;25.60;98.10;;;;;;5075978;28;20304;-87
2023/06/05 10:17:11;;;;;;;6.83;4.10;;;25.90;99.10;;;;;;5076030;28;20557;-87
2023/06/05 10:19:41;;;;;;;5.37;4.70;;;26.50;95.10;;;;;;5075585;28;20206;-88
2023/06/05 10:22:07;;;;;;;4.77;4.17;;;;;;;;;;5075868;28;20185;-88
2023/06/05 10:24:41;;;;;;;5.53;3.97;;;26.50;94.60;;;;;;5076166;28;20212;-87
2023/06/05 10:27:10;;;;;;;8.53;4.00;;;26.30;91.60;;;;;;5076851;28;20212;-86
2023/06/05 10:29:55;;;;;;;5.07;3.50;;;25.60;92.60;;;;;;5077442;28;20183;-87
2023/06/05 10:32:29;;;;;;;4.23;3.63;;;24.50;92.80;;;;;;5086100;28;20174;-87
2023/06/05 10:35:15;;;;;;;5.13;3.73;;;24.70;94.70;;;;;;5079441;28;20212;-89
2023/06/05 10:37:49;;;;;;;3.70;3.40;;;25.30;97.80;;;;;;5074883;28;20194;-88
2023/06/05 10:40:16;;;;;;;7.37;3.83;;;26.00;92.50;;;;;;5075800;28;20531;-88
2023/06/05 10:42:42;;;;;;;6.07;3.70;;;26.50;95.40;;;;;;5079182;28;20650;-88
2023/06/05 10:45:09;;;;;;;5.37;3.83;;;26.80;91.20;;;;;;5080870;28;20183;-87
2023/06/05 10:47:35;;;;;;;5.83;3.93;;;27.00;90.60;;;;;;5080877;28;20339;-86
2023/06/05 10:50:21;;;;;;;6.07;4.03;;;27.10;91.60;;;;;;5079294;28;20179;-87
2023/06/05 10:52:52;;;;;;;5.33;3.70;;;27.30;92.20;;;;;;5077427;28;20184;-87
2023/06/05 10:55:18;;;;;;;5.17;3.47;;;27.60;91.70;;;;;;5076730;28;20176;-87
2023/06/05 10:58:15;;;;;;;8.40;3.40;;;27.40;88.30;;;;;;5076286;28;20285;-87
2023/06/05 11:01:29;;;;;;;7.47;3.90;;;27.60;91.80;;;;;;5074701;28;20176;-85
2023/06/05 11:04:01;;;;;;;4.30;3.40;;;27.70;90.30;;;;;;5078368;28;20195;-86
2023/06/05 11:06:27;;;;;;;6.23;3.67;;;27.90;92.50;;;;;;5074928;28;20199;-86
2023/06/05 11:09:12;;;;;;;5.80;3.97;;;28.10;90.80;;;;;;5075416;28;20241;-86
2023/06/05 11:12:00;;;;;;;5.37;3.47;;;28.30;92.80;;;;;;5074737;28;20184;-87
2023/06/05 11:14:55;;;;;;;7.27;3.80;;;28.20;84.80;;;;;;5075287;28;20226;-87
2023/06/05 11:17:29;;;;;;;6.23;3.37;;;28.20;85.20;;;;;;5070388;28;20568;-88
2023/06/05 11:19:55;;;;;;;5.93;3.43;;;28.20;82.90;;;;;;5074879;28;20196;-88
2023/06/05 11:22:21;;;;;;;8.43;3.50;;;28.30;86.40;;;;;;5080256;28;20568;-87
2023/06/05 11:25:20;;;;;;;6.90;3.70;;;28.50;87.50;;;;;;5081512;28;20211;-88
2023/06/05 11:27:47;;;;;;;4.20;3.47;;;28.60;82.50;;;;;;5084035;28;20747;-85
2023/06/05 11:30:13;;;;;;;5.67;3.20;;;28.90;87.80;;;;;;5084965;28;20181;-85
2023/06/05 11:32:39;;;;;;;4.13;3.63;;;29.30;83.00;;;;;;5083832;28;20212;-84
2023/06/05 11:35:05;;;;;;;3.60;2.90;;;29.60;78.70;;;;;;5084397;28;20216;-84
2023/06/05 11:37:34;;;;;;;3.90;3.40;;;29.40;85.10;;;;;;5084883;28;20193;-84
2023/06/05 11:40:11;;;;;;;8.17;3.80;;;29.70;80.60;;;;;;5084383;28;20173;-84
2023/06/05 11:42:40;;;;;;;8.47;3.90;;;30.00;77.50;;;;;;5083566;28;20212;-85
2023/06/05 11:45:13;;;;;;;4.03;3.43;;;30.10;79.00;;;;;;5082748;28;20600;-86
2023/06/05 11:47:39;;;;;;;8.00;3.27;;;30.20;76.20;;;;;;5082787;28;20197;-85
2023/06/05 11:50:13;;;;;;;4.40;3.63;;;30.30;76.00;;;;;;5083040;28;20199;-85
2023/06/05 11:52:39;;;;;;;4.03;3.57;;;30.90;73.40;;;;;;5083561;28;20261;-85
2023/06/05 11:55:15;;;;;;;5.30;3.27;;;31.20;74.90;;;;;;5082331;28;20281;-85
2023/06/05 11:57:44;;;;;;;5.77;3.50;;;31.40;65.70;;;;;;5084497;28;20189;-85
2023/06/05 12:00:11;;;;;;;4.27;3.30;;;31.60;74.10;;;;;;5083200;28;20187;-84
2023/06/05 12:02:37;;;;;;;6.50;3.83;;;31.90;66.90;;;;;;5084160;28;20237;-86
2023/06/05 12:05:07;;;;;;;5.53;3.57;;;31.80;70.50;;;;;;5083646;28;20192;-85
2023/06/05 12:07:36;;;;;;;4.90;3.47;;;32.00;67.60;;;;;;5083623;28;20202;-84
2023/06/05 12:10:07;;;;;;;9.83;4.23;;;32.20;67.30;;;;;;5085320;28;20198;-83
2023/06/05 12:12:33;;;;;;;9.80;4.07;;;30.50;67.50;;;;;;5085084;28;20633;-86
2023/06/05 12:15:16;;;;;;;6.50;4.00;;;29.00;64.60;;;;;;5084194;28;20675;-86
2023/06/05 12:17:52;;;;;;;6.10;3.97;;;26.90;68.10;;;;;;5091526;28;20200;-85
2023/06/05 12:20:19;;;;;;;4.20;3.80;;;25.80;73.80;;;;;;5094647;28;20164;-85
2023/06/05 12:22:44;;;;;;;5.80;3.50;;;25.70;72.10;;;;;;5081831;28;20183;-85
2023/06/05 12:25:21;;;;;;;5.60;3.37;;;25.30;73.00;;;;;;5082912;28;20188;-84
2023/06/05 12:27:48;;;;;;;6.10;3.97;;;24.70;74.30;;;;;;5085375;28;20203;-86
2023/06/05 12:30:16;;;;;;;4.37;3.67;;;24.40;80.10;;;;;;5084512;28;20178;-86
2023/06/05 12:32:45;;;;;;;9.07;4.10;;;24.10;74.80;;;;;;5082496;28;20198;-86
2023/06/05 12:35:21;;;;;;;5.87;3.80;;;25.60;79.60;;;;;;5086839;28;20631;-86
2023/06/05 12:37:48;;;;;;;6.20;3.73;;;27.60;75.40;;;;;;5086967;28;20201;-87
2023/06/05 12:40:17;;;;;;;11.87;4.17;;;29.10;72.80;;;;;;5082696;28;20196;-86
2023/06/05 12:42:43;;;;;;;5.63;3.80;;;30.10;64.00;;;;;;5082335;28;20179;-86
2023/06/05 12:45:10;;;;;;;9.63;4.50;;;30.40;69.00;;;;;;5081988;28;20283;-87
2023/06/05 12:47:37;;;;;;;5.37;3.80;;;29.30;64.40;;;;;;5080464;28;20193;-88
2023/06/05 12:50:11;;;;;;;5.83;3.97;;;27.50;67.70;;;;;;5083463;28;20184;-88
2023/06/05 12:52:38;;;;;;;6.50;3.63;;;26.30;69.60;;;;;;5080147;28;20180;-87
2023/06/05 12:55:05;;;;;;;9.27;3.80;;;25.60;74.90;;;;;;5080651;28;20201;-87
2023/06/05 12:57:32;;;;;;;3.97;3.57;;;25.90;72.80;;;;;;5085009;28;20253;-86
2023/06/05 12:59:58;;;;;;;5.83;4.00;;;27.20;76.90;;;;;;5085897;28;20177;-84
2023/06/05 13:02:24;;;;;;;11.93;3.80;;;28.10;74.80;;;;;;5085416;28;20234;-84
2023/06/05 13:04:50;;;;;;;4.83;3.90;;;27.40;68.70;;;;;;5084038;28;20169;-84
2023/06/05 13:07:21;;;;;;;4.90;4.03;;;27.80;73.80;;;;;;5085198;28;20189;-84
2023/06/05 13:09:46;;;;;;;11.20;4.47;;;28.10;68.30;;;;;;5084653;28;20157;-85
2023/06/05 13:12:12;;;;;;;8.93;4.40;;;27.20;67.00;;;;;;5085083;28;20230;-86
2023/06/05 13:14:38;;;;;;;14.77;4.70;;;27.00;68.40;;;;;;5080137;28;20215;-87
2023/06/05 13:17:04;;;;;;;7.60;4.10;;;26.90;73.60;;;;;;5081519;28;20590;-86
2023/06/05 13:19:30;;;;;;;6.83;3.87;;;27.50;68.80;;;;;;5084233;28;20180;-86
2023/06/05 13:21:55;;;;;;;4.00;3.63;;;28.10;70.00;;;;;;5083511;28;20603;-86
2023/06/05 13:24:21;;;;;;;7.93;3.37;;;28.90;66.90;;;;;;5082947;28;20205;-85
2023/06/05 13:26:47;;;;;;;7.37;4.00;;;29.60;64.60;;;;;;5082195;28;20180;-85
2023/06/05 13:29:13;;;;;;;11.03;4.33;;;29.80;68.80;;;;;;5082237;28;20268;-86
2023/06/05 13:31:39;;;;;;;7.43;4.07;;;29.90;63.60;;;;;;5081856;28;20178;-85
2023/06/05 13:34:05;;;;;;;12.37;4.20;;;30.30;70.50;;;;;;5083940;28;20244;-85
2023/06/05 13:36:31;;;;;;;5.60;3.57;;;30.60;62.10;;;;;;5083624;28;20172;-85
2023/06/05 13:38:57;;;;;;;10.47;4.00;;;30.50;68.60;;;;;;5082904;28;20181;-86
2023/06/05 13:41:23;;;;;;;6.37;4.00;;;29.90;64.30;;;;;;5083494;28;20179;-84
2023/06/05 13:43:48;;;;;;;4.27;3.87;;;29.00;63.10;;;;;;5083170;28;20210;-84
2023/06/05 13:46:14;;;;;;;7.13;4.33;;;28.00;65.20;;;;;;5084545;28;20210;-86
2023/06/05 13:48:40;;;;;;;6.77;3.73;;;;;;;;;;5088306;28;20209;-86
2023/06/05 13:51:06;;;;;;;5.07;4.37;;;27.80;67.30;;;;;;5092066;28;20664;-85
2023/06/05 13:53:34;;;;;;;5.80;3.47;;;28.30;66.00;;;;;;5090515;28;20230;-84
2023/06/05 13:56:01;;;;;;;5.43;3.90;;;28.80;65.80;;;;;;5092350;28;20177;-85
2023/06/05 13:58:27;;;;;;;5.60;3.80;;;28.90;66.30;;;;;;5082624;28;20210;-84
2023/06/05 14:00:53;;;;;;;7.60;3.53;;;29.20;65.20;;;;;;5077039;28;20181;-86
2023/06/05 14:03:19;;;;;;;6.07;3.90;;;29.50;67.20;;;;;;5083284;28;20206;-85
2023/06/05 14:05:44;;;;;;;4.07;3.67;;;29.50;63.20;;;;;;5080602;28;20223;-85
2023/06/05 14:08:10;;;;;;;8.27;3.83;;;29.40;70.40;;;;;;5089482;28;20729;-86
2023/06/05 14:10:36;;;;;;;4.37;3.97;;;29.60;65.40;;;;;;5084089;28;20526;-85
2023/06/05 14:13:02;;;;;;;5.47;3.90;;;29.30;73.00;;;;;;5081710;28;20185;-85
2023/06/05 14:15:31;;;;;;;6.37;3.47;;;27.70;66.70;;;;;;5081757;28;20174;-84
2023/06/05 14:17:57;;;;;;;5.67;3.57;;;27.60;69.00;;;;;;5081608;28;20196;-85
2023/06/05 14:20:23;;;;;;;7.90;4.03;;;27.70;71.60;;;;;;5083046;28;20199;-85
2023/06/05 14:22:49;;;;;;;8.47;4.00;;;28.00;63.80;;;;;;5083587;28;20161;-84
2023/06/05 14:25:15;;;;;;;4.30;3.60;;;28.40;70.50;;;;;;5082414;28;20178;-84
2023/06/05 14:27:41;;;;;;;4.40;3.47;;;29.00;71.80;;;;;;5082939;28;20194;-85
2023/06/05 14:30:08;;;;;;;10.60;5.00;;;29.60;68.60;;;;;;5080680;28;20260;-85
2023/06/05 14:32:35;;;;;;;6.67;4.50;;;29.80;64.20;;;;;;5082531;28;20260;-85
2023/06/05 14:35:01;;;;;;;4.13;3.63;;;29.40;64.10;;;;;;5083901;28;20224;-84
2023/06/05 14:37:27;;;;;;;6.27;4.00;;;29.40;67.90;;;;;;5081671;28;20199;-84
2023/06/05 14:39:52;;;;;;;4.77;3.63;;;29.40;60.70;;;;;;5082614;28;20269;-85
2023/06/05 14:42:18;;;;;;;4.70;4.13;;;;;;;;;;5082358;28;20180;-85
2023/06/05 14:44:44;;;;;;;6.00;3.60;;;;;;;;;;5083816;28;20179;-84
2023/06/05 14:47:11;;;;;;;5.37;3.80;;;;;;;;;;5083313;28;20213;-85
2023/06/05 14:49:36;;;;;;;5.43;3.67;;;26.60;63.80;;;;;;5082909;28;20346;-84
2023/06/05 14:52:02;;;;;;;6.60;3.83;;;25.90;66.60;;;;;;5082096;28;20179;-85
2023/06/05 14:54:28;;;;;;;6.63;4.20;;;25.30;69.10;;;;;;5079112;28;20202;-85
2023/06/05 14:56:53;;;;;;;4.97;4.30;;;24.50;77.00;;;;;;5085480;28;20198;-85
2023/06/05 14:59:22;;;;;;;6.57;4.10;;;23.50;79.40;;;;;;5088072;28;20589;-84
2023/06/05 15:01:48;;;;;;;5.43;4.43;;;22.70;81.10;;;;;;5087365;28;20187;-85
2023/06/05 15:04:14;;;;;;;5.10;4.60;;;22.10;83.50;;;;;;5086811;28;20179;-86
2023/06/05 15:06:40;;;;;;;5.50;4.77;;;21.20;86.00;;;;;;5086068;28;20274;-85
2023/06/05 15:09:06;;;;;;;6.23;4.40;;;21.20;86.20;;;;;;5086489;28;20207;-85
2023/06/05 15:11:32;;;;;;;4.40;3.90;;;21.00;87.40;;;;;;5087078;28;20519;-85
2023/06/05 15:13:57;;;;;;;4.80;4.30;;;21.00;87.40;;;;;;5086946;28;20231;-85
2023/06/05 15:16:24;;;;;;;7.53;4.37;;;21.30;87.80;;;;;;5086964;28;20575;-85
2023/06/05 15:18:50;;;;;;;4.53;3.83;;;21.20;86.90;;;;;;5086761;28;20204;-85
2023/06/05 15:21:16;;;;;;;5.03;4.23;;;21.00;89.00;;;;;;5087239;28;20530;-85
2023/06/05 15:23:41;;;;;;;4.93;4.27;;;20.80;88.40;;;;;;5085071;28;20272;-83
2023/06/05 15:26:07;;;;;;;5.03;4.23;;;20.80;90.00;;;;;;5086704;28;20697;-83
2023/06/05 15:28:33;;;;;;;5.20;4.10;;;21.40;90.00;;;;;;5090763;28;20204;-83
2023/06/05 15:30:58;;;;;;;5.63;4.57;;;21.70;90.50;;;;;;5094031;28;20189;-84
2023/06/05 15:33:24;;;;;;;7.90;4.50;;;21.80;88.40;;;;;;5092343;28;20568;-83
2023/06/05 15:35:50;;;;;;;4.90;4.40;;;21.80;88.30;;;;;;5086383;28;20191;-85
2023/06/05 15:38:15;;;;;;;7.80;4.23;;;22.00;89.70;;;;;;5085000;28;20673;-84
2023/06/05 15:40:41;;;;;;;7.47;4.60;;;22.80;87.30;;;;;;5086927;28;20173;-84
2023/06/05 15:43:09;;;;;;;6.83;4.30;;;23.30;86.40;;;;;;5084252;28;20181;-83
2023/06/05 15:45:35;;;;;;;5.33;4.53;;;23.90;89.70;;;;;;5085653;28;20275;-84
2023/06/05 15:48:02;;;;;;;7.57;4.17;;;24.20;83.90;;;;;;5085492;28;20195;-84
2023/06/05 15:50:28;;;;;;;4.83;4.10;;;24.50;86.70;;;;;;5085811;28;20239;-84
2023/06/05 15:52:53;;;;;;;4.90;4.33;;;24.40;85.00;;;;;;5086227;28;20628;-85
2023/06/05 15:55:19;;;;;;;5.43;4.40;;;22.90;85.60;;;;;;5085609;28;20301;-82
2023/06/05 15:57:47;;;;;;;5.23;4.60;;;21.80;90.10;;;;;;5085109;28;20287;-84
2023/06/05 16:00:14;;;;;;;5.80;4.30;;;21.30;91.60;;;;;;5085234;28;20166;-85
2023/06/05 16:02:40;;;;;;;4.97;4.17;;;21.10;92.60;;;;;;5085132;28;20174;-85
2023/06/05 16:05:07;;;;;;;5.40;4.43;;;21.40;91.90;;;;;;5086990;28;20537;-83
2023/06/05 16:07:32;;;;;;;9.10;4.97;;;21.90;92.70;;;;;;5084462;28;20253;-84
2023/06/05 16:09:58;;;;;;;4.37;3.93;;;22.00;90.10;;;;;;5084601;28;20181;-85
2023/06/05 16:12:24;;;;;;;4.90;4.27;;;22.10;90.50;;;;;;5086396;28;20184;-85
2023/06/05 16:14:49;;;;;;;4.53;4.13;;;21.90;89.50;;;;;;5082510;28;20288;-82
2023/06/05 16:17:16;;;;;;;5.03;4.50;;;22.00;87.60;;;;;;5081436;28;20201;-78
2023/06/05 16:19:42;;;;;;;4.87;4.37;;;22.20;88.40;;;;;;5080400;28;20228;-80
2023/06/05 16:22:08;;;;;;;5.83;4.20;;;22.30;88.90;;;;;;5080341;28;20190;-82
2023/06/05 16:24:33;;;;;;;4.33;3.93;;;22.30;90.90;;;;;;5081569;28;20274;-83
2023/06/05 16:26:59;;;;;;;4.10;3.70;;;22.40;89.20;;;;;;5078975;28;20222;-82
2023/06/05 16:29:25;;;;;;;4.80;4.40;;;22.50;88.40;;;;;;5078778;28;20212;-80
2023/06/05 16:31:51;;;;;;;5.27;4.10;;;22.50;89.70;;;;;;5081963;28;20198;-79
2023/06/05 16:34:17;;;;;;;6.60;4.20;;;22.50;90.00;;;;;;5078502;28;20214;-81
2023/06/05 16:36:44;;;;;;;6.87;5.17;;;22.30;90.80;;;;;;5079134;28;20194;-81
2023/06/05 16:39:10;;;;;;;5.43;4.60;;;21.70;92.50;;;;;;5080222;28;20171;-86
2023/06/05 16:41:36;;;;;;;6.07;4.43;;;21.00;92.80;;;;;;5080288;28;20261;-83
2023/06/05 16:44:03;;;;;;;6.40;5.00;;;20.60;93.70;;;;;;5080847;28;20630;-83
2023/06/05 16:46:28;;;;;;;4.60;4.20;;;20.30;94.80;;;;;;5078003;28;20234;-80
2023/06/05 16:48:54;;;;;;;4.50;3.27;;;20.10;92.70;;;;;;5079541;28;20201;-80
2023/06/05 16:51:23;;;;;;;5.20;3.30;;;19.90;92.60;;;;;;5079837;28;20173;-81
2023/06/05 16:53:50;;;;;;;3.07;2.77;;;19.90;93.20;;;;;;5079881;28;20199;-81
2023/06/05 16:56:16;;;;;;;3.37;3.07;;;19.90;92.90;;;;;;5079581;28;20173;-81
2023/06/05 16:58:42;;;;;;;5.20;2.50;;;19.90;92.30;;;;;;5079943;28;20189;-81
2023/06/05 17:01:08;;;;;;;7.07;2.63;;;19.90;90.80;;;;;;5081508;28;20211;-81
2023/06/05 17:03:34;;;;;;;3.40;2.40;;;20.00;90.10;;;;;;5082685;28;20177;-86
2023/06/05 17:06:00;;;;;;;4.13;2.73;;;20.00;90.30;;;;;;5085906;28;20177;-84
2023/06/05 17:08:26;;;;;;;2.77;2.50;;;19.90;89.90;;;;;;5093506;28;20177;-84
2023/06/05 17:10:52;;;;;;;5.37;3.10;;;19.90;90.10;;;;;;5091429;28;20177;-84
2023/06/05 17:13:18;;;;;;;4.63;3.00;;;19.80;90.00;;;;;;5085044;28;20205;-83
2023/06/05 17:15:46;;;;;;;3.53;3.23;;;19.70;91.00;;;;;;5082190;28;20173;-85
2023/06/05 17:18:12;;;;;;;4.73;3.10;;;19.60;90.20;;;;;;5081762;28;20239;-85
2023/06/05 17:20:38;;;;;;;4.97;3.10;;;19.50;90.80;;;;;;5082661;28;20177;-85
2023/06/05 17:23:03;;;;;;;4.93;3.10;;;19.50;90.60;;;;;;5082892;28;20262;-84
2023/06/05 17:25:29;;;;;;;4.97;3.00;;;19.40;90.80;;;;;;5081729;28;20176;-85
2023/06/05 17:27:57;;;;;;;5.00;2.63;;;19.30;91.00;;;;;;5079987;28;20204;-83
2023/06/05 17:30:23;;;;;;;4.80;2.70;;;19.30;91.90;;;;;;5081309;28;20177;-83
2023/06/05 17:32:49;;;;;;;3.20;2.90;;;19.30;92.40;;;;;;5083535;28;20721;-83
2023/06/05 17:35:14;;;;;;;4.13;2.93;;;19.40;92.10;;;;;;5083894;28;20234;-83
2023/06/05 17:37:40;;;;;;;3.20;2.90;;;19.50;91.90;;;;;;5078978;28;20211;-86
2023/06/05 17:40:06;;;;;;;5.50;2.90;;;19.50;91.30;;;;;;5078920;28;20635;-83
2023/06/05 17:42:32;;;;;;;3.20;2.90;;;19.30;91.20;;;;;;5078651;28;20179;-84
2023/06/05 17:44:58;;;;;;;3.77;2.63;;;19.20;91.80;;;;;;5079605;28;20190;-80
2023/06/05 17:47:24;;;;;;;5.10;2.80;;;19.20;91.90;;;;;;5074290;28;20200;-80
2023/06/05 17:49:50;;;;;;;3.07;2.47;;;19.00;91.50;;;;;;5077910;28;20184;-83
2023/06/05 17:52:16;;;;;;;3.53;3.20;;;19.00;92.50;;;;;;5077269;28;20187;-83
2023/06/05 17:54:42;;;;;;;5.67;2.80;;;18.90;92.80;;;;;;5079500;28;20200;-82
